Terminal Aerodrome Forecast
Issued by NWS Lake Charles, LA

Home | Current Version | Previous Version | Text Only | Print | Product List | Glossary On
Versions: 1 2 3 4 5 6 7 8 9 10 11 12 13 14 15 16
693
FTUS44 KLCH 230520
TAFAEX
TAF
KAEX 230520Z 2306/2406 VRB03KT P6SM SCT015
     FM230800 00000KT 4SM BR SCT008 BKN015
      TEMPO 2309/2313 2SM BR OVC008
     FM231600 14007KT P6SM SCT025=

USA.gov is the U.S. government's official web portal to all federal, state and local government web resources and services.